createdAt,value
2019-04-10T00:02:43.880Z,47.23
2019-04-10T00:07:39.685Z,47.80
2019-04-10T00:12:35.994Z,47.10
2019-04-10T00:17:31.737Z,45.30
2019-04-10T00:22:28.465Z,46.27
2019-04-10T00:27:24.637Z,45.67
2019-04-10T00:32:21.637Z,46.13
2019-04-10T00:37:23.920Z,44.37
2019-04-10T00:42:15.491Z,46.13
2019-04-10T00:47:11.194Z,46.23
2019-04-10T00:52:08.029Z,46.87
2019-04-10T00:57:03.761Z,48.77
2019-04-10T01:02:00.368Z,44.97
2019-04-10T01:06:56.681Z,45.77
2019-04-10T01:11:52.673Z,44.50
2019-04-10T01:16:49.360Z,45.50
2019-04-10T01:21:46.386Z,46.03
2019-04-10T01:26:43.111Z,45.63
2019-04-10T01:31:39.468Z,46.63
2019-04-10T01:36:35.352Z,46.60
2019-04-10T01:41:32.718Z,45.67
2019-04-10T01:46:28.562Z,47.20
2019-04-10T01:51:25.492Z,46.27
2019-04-10T01:56:29.443Z,47.90
2019-04-10T02:01:31.115Z,48.03
2019-04-10T02:06:27.417Z,47.23
2019-04-10T02:11:23.957Z,46.83
2019-04-10T02:16:20.832Z,45.73
2019-04-10T02:21:17.900Z,46.97
2019-04-10T02:26:13.723Z,46.37
2019-04-10T02:31:10.164Z,47.20
2019-04-10T02:36:05.904Z,46.00
2019-04-10T02:41:03.437Z,46.90
2019-04-10T02:46:00.110Z,46.33
2019-04-10T02:50:57.577Z,46.03
2019-04-10T02:55:53.713Z,46.93
2019-04-10T03:00:53.908Z,47.60
2019-04-10T03:05:48.715Z,46.10
2019-04-10T03:10:50.576Z,46.00
2019-04-10T03:15:43.575Z,46.20
2019-04-10T03:20:40.546Z,45.60
2019-04-10T03:25:37.186Z,46.00
2019-04-10T03:30:35.892Z,46.77
2019-04-10T03:35:34.541Z,44.93
2019-04-10T03:40:31.365Z,46.27
2019-04-10T03:45:27.301Z,42.40
2019-04-10T03:50:23.681Z,44.20
2019-04-10T03:55:19.459Z,43.07
2019-04-10T04:00:16.243Z,41.87
2019-04-10T04:05:12.730Z,45.27
2019-04-10T04:10:09.472Z,46.57
2019-04-10T04:15:05.811Z,47.23
2019-04-10T04:20:02.529Z,45.30
2019-04-10T04:24:58.325Z,44.83
2019-04-10T04:29:55.166Z,45.07
2019-04-10T04:34:52.091Z,44.40
2019-04-10T04:39:48.165Z,42.90
2019-04-10T04:44:43.844Z,43.50
2019-04-10T04:54:35.207Z,42.97
2019-04-10T04:59:30.943Z,44.27
2019-04-10T05:04:27.117Z,41.97
2019-04-10T05:09:33.118Z,43.40
2019-04-10T05:14:21.679Z,43.97
2019-04-10T05:19:18.976Z,44.73
2019-04-10T05:24:15.703Z,44.23
2019-04-10T05:29:11.749Z,44.23
2019-04-10T05:34:07.686Z,44.27
2019-04-10T05:39:05.015Z,45.50
2019-04-10T05:44:00.780Z,45.40
2019-04-10T05:48:56.677Z,44.57
2019-04-10T05:53:54.217Z,44.77
2019-04-10T05:58:51.109Z,43.40
2019-04-10T06:03:47.303Z,42.77
2019-04-10T06:08:43.608Z,43.93
2019-04-10T06:13:39.372Z,43.37
2019-04-10T06:18:35.564Z,41.37
2019-04-10T06:23:31.751Z,39.63
2019-04-10T06:28:29.286Z,39.40
2019-04-10T06:33:25.847Z,37.07
2019-04-10T06:38:23.121Z,36.80
2019-04-10T06:43:19.076Z,36.57
2019-04-10T06:48:15.137Z,34.60
2019-04-10T06:53:10.807Z,33.77
2019-04-10T06:58:07.526Z,35.10
2019-04-10T07:03:03.438Z,33.07
2019-04-10T07:08:09.177Z,33.50
2019-04-10T07:12:57.137Z,34.47
2019-04-10T07:17:53.420Z,32.70
2019-04-10T07:22:49.807Z,32.83
2019-04-10T07:27:45.875Z,32.33
2019-04-10T07:32:45.748Z,33.03
2019-04-10T07:37:40.360Z,33.73
2019-04-10T07:42:38.837Z,32.80
2019-04-10T07:47:33.918Z,32.93
2019-04-10T07:52:29.658Z,33.07
2019-04-10T07:57:26.682Z,32.30
2019-04-10T08:02:23.314Z,33.30
2019-04-10T08:07:28.545Z,32.10
2019-04-10T08:12:17.153Z,33.40
2019-04-10T08:17:14.221Z,34.37
2019-04-10T08:22:10.282Z,33.77
2019-04-10T08:27:07.861Z,32.77
2019-04-10T08:32:03.748Z,33.70
2019-04-10T08:36:59.870Z,34.07
2019-04-10T08:41:55.572Z,32.55
2019-04-10T08:46:52.593Z,32.85
2019-04-10T08:51:48.371Z,31.95
2019-04-10T08:56:44.950Z,33.23
2019-04-10T09:01:41.738Z,34.25
2019-04-10T09:06:37.797Z,30.65
2019-04-10T09:11:34.024Z,33.05
2019-04-10T09:16:31.000Z,32.95
2019-04-10T09:21:26.819Z,31.23
2019-04-10T09:26:23.067Z,32.58
2019-04-10T09:31:19.788Z,31.95
2019-04-10T09:36:18.137Z,30.80
2019-04-10T09:41:14.153Z,32.50
2019-04-10T09:46:11.259Z,32.93
2019-04-10T09:51:07.580Z,32.73
2019-04-10T09:56:03.697Z,33.10
2019-04-10T10:01:01.432Z,33.40
2019-04-10T10:05:57.560Z,33.40
2019-04-10T10:10:53.494Z,32.35
2019-04-10T10:15:49.670Z,33.35
2019-04-10T10:20:46.019Z,33.10
2019-04-10T10:25:43.341Z,37.00
2019-04-10T10:30:39.772Z,31.17
2019-04-10T10:35:36.007Z,32.88
2019-04-10T10:40:32.387Z,32.25
2019-04-10T10:45:29.058Z,31.93
2019-04-10T10:50:25.564Z,32.50
2019-04-10T10:55:21.594Z,32.58
2019-04-10T11:00:18.920Z,31.35
2019-04-10T11:05:15.147Z,32.63
2019-04-10T11:10:11.121Z,33.20
2019-04-10T11:15:07.797Z,33.28
2019-04-10T11:20:06.008Z,36.98
2019-04-10T11:25:03.797Z,34.10
2019-04-10T11:30:00.837Z,32.88
2019-04-10T11:34:57.443Z,33.48
2019-04-10T11:39:54.516Z,33.30
2019-04-10T11:44:53.670Z,32.55
2019-04-10T11:49:49.667Z,32.03
2019-04-10T11:54:46.905Z,32.00
2019-04-10T11:59:44.769Z,33.45
2019-04-10T12:04:52.119Z,30.97
2019-04-10T12:14:37.377Z,32.20
2019-04-10T12:19:33.264Z,32.23
2019-04-10T12:24:30.021Z,30.97
2019-04-10T12:29:26.744Z,31.80
2019-04-10T12:34:22.828Z,33.60
2019-04-10T12:39:18.709Z,31.90
2019-04-10T12:44:15.843Z,31.42
2019-04-10T12:49:11.594Z,32.20
2019-04-10T12:54:07.926Z,31.97
2019-04-10T12:59:03.813Z,32.05
2019-04-10T13:03:59.907Z,32.38
2019-04-10T13:09:02.775Z,30.95
2019-04-10T13:13:54.569Z,31.52
2019-04-10T13:18:50.425Z,31.52
2019-04-10T13:23:46.851Z,30.75
2019-04-10T13:28:43.479Z,31.05
2019-04-10T13:33:40.514Z,30.80
2019-04-10T13:38:38.267Z,29.52
2019-04-10T13:43:35.964Z,28.67
2019-04-10T13:48:31.764Z,22.52
2019-04-10T13:53:30.008Z,24.50
2019-04-10T13:58:27.295Z,25.43
2019-04-10T14:03:23.891Z,23.27
2019-04-10T14:08:19.729Z,25.27
2019-04-10T14:13:15.820Z,23.27
2019-04-10T14:18:12.286Z,23.67
2019-04-10T14:23:20.035Z,22.73
2019-04-10T14:28:16.644Z,23.03
2019-04-10T14:33:14.964Z,24.10
2019-04-10T14:38:10.920Z,23.00
2019-04-10T14:43:07.413Z,23.17
2019-04-10T14:48:03.611Z,22.77
2019-04-10T14:52:59.505Z,22.07
2019-04-10T14:57:55.347Z,23.00
2019-04-10T15:02:51.745Z,25.27
2019-04-10T15:07:47.536Z,25.47
2019-04-10T15:12:43.827Z,23.83
2019-04-10T15:17:40.275Z,24.33
2019-04-10T15:22:36.183Z,24.30
2019-04-10T15:27:33.297Z,23.80
2019-04-10T15:32:29.437Z,22.50
2019-04-10T15:37:25.137Z,23.53
2019-04-10T15:42:21.767Z,22.53
2019-04-10T15:47:21.430Z,22.53
2019-04-10T15:52:15.417Z,21.53
2019-04-10T15:57:11.168Z,19.77
2019-04-10T16:02:07.795Z,21.00
2019-04-10T16:07:04.198Z,20.47
2019-04-10T16:12:02.681Z,20.47
2019-04-10T16:17:06.927Z,20.70
2019-04-10T16:22:04.715Z,20.77
2019-04-10T16:27:00.892Z,19.37
2019-04-10T16:31:56.636Z,18.57
2019-04-10T16:36:52.554Z,18.00
2019-04-10T16:41:48.304Z,18.07
2019-04-10T16:46:45.178Z,18.57
2019-04-10T16:51:40.991Z,17.97
2019-04-10T16:56:37.985Z,17.23
2019-04-10T17:01:33.751Z,16.43
2019-04-10T17:06:30.335Z,16.00
2019-04-10T17:11:27.133Z,15.77
2019-04-10T17:16:23.881Z,15.53
2019-04-10T17:21:19.994Z,15.63
2019-04-10T17:26:17.102Z,16.03
2019-04-10T17:31:14.217Z,21.00
2019-04-10T17:36:10.259Z,17.50
2019-04-10T17:41:07.175Z,15.20
2019-04-10T17:46:03.301Z,16.20
2019-04-10T17:50:59.421Z,16.27
2019-04-10T17:55:55.938Z,15.83
2019-04-10T18:00:53.851Z,15.67
2019-04-10T18:05:50.819Z,14.63
2019-04-10T18:10:49.881Z,15.00
2019-04-10T18:15:46.218Z,14.37
2019-04-10T18:20:42.228Z,14.87
2019-04-10T18:25:38.402Z,15.17
2019-04-10T18:30:35.518Z,15.80
2019-04-10T18:35:33.575Z,14.90
2019-04-10T18:40:29.989Z,16.13
2019-04-10T18:45:26.142Z,15.73
2019-04-10T18:50:22.379Z,14.80
2019-04-10T18:55:18.373Z,15.47
2019-04-10T19:00:28.455Z,15.53
2019-04-10T19:05:26.164Z,14.87
2019-04-10T19:10:22.204Z,15.77
2019-04-10T19:15:17.928Z,16.10
2019-04-10T19:20:15.747Z,14.93
2019-04-10T19:25:11.687Z,14.50
2019-04-10T19:30:10.938Z,14.93
2019-04-10T19:35:06.811Z,15.07
2019-04-10T19:40:05.078Z,14.30
2019-04-10T19:45:01.654Z,14.60
2019-04-10T19:49:57.721Z,13.97
2019-04-10T19:54:53.486Z,13.70
2019-04-10T19:59:50.233Z,13.97
2019-04-10T20:04:46.076Z,13.77
2019-04-10T20:09:41.933Z,13.47
2019-04-10T20:14:38.758Z,13.27
2019-04-10T20:19:34.873Z,13.17
2019-04-10T20:24:31.181Z,13.90
2019-04-10T20:29:27.039Z,14.20
2019-04-10T20:34:23.254Z,16.13
2019-04-10T20:39:19.189Z,14.30
2019-04-10T20:44:14.905Z,13.47
2019-04-10T20:49:12.001Z,20.33
2019-04-10T20:54:08.623Z,14.00
2019-04-10T20:59:05.511Z,13.10
2019-04-10T21:04:01.577Z,12.20
2019-04-10T21:08:58.699Z,12.77
2019-04-10T21:13:54.824Z,12.30
2019-04-10T21:18:51.634Z,12.50
2019-04-10T21:23:48.595Z,12.30
2019-04-10T21:28:45.802Z,12.70
2019-04-10T21:33:43.463Z,13.73
2019-04-10T21:38:39.305Z,13.10
2019-04-10T21:43:34.982Z,12.13
2019-04-10T21:48:30.978Z,12.30
2019-04-10T21:53:26.729Z,11.70
2019-04-10T21:58:24.048Z,11.40
2019-04-10T22:03:21.076Z,10.03
2019-04-10T22:08:19.113Z,10.30
2019-04-10T22:13:15.519Z,11.27
2019-04-10T22:18:12.853Z,10.67
2019-04-10T22:23:09.711Z,11.30
2019-04-10T22:33:03.215Z,9.63
2019-04-10T22:38:00.291Z,10.10
2019-04-10T22:42:57.457Z,9.57
2019-04-10T22:47:54.248Z,9.87
2019-04-10T22:52:50.753Z,9.77
2019-04-10T22:57:46.486Z,9.43
2019-04-10T23:07:37.892Z,10.10
2019-04-10T23:12:34.081Z,10.03
2019-04-10T23:17:30.102Z,10.40
2019-04-10T23:22:27.305Z,9.70
2019-04-10T23:27:23.846Z,10.10
2019-04-10T23:32:21.277Z,10.00
2019-04-10T23:37:18.412Z,9.70
2019-04-10T23:42:14.901Z,10.43
2019-04-10T23:47:11.748Z,11.23
2019-04-10T23:52:07.683Z,10.30
2019-04-10T23:57:05.114Z,9.67
